Time;durP1;ratioP1;P1;durP2;ratioP2;P2;SDS_P1;SDS_P2;PMS_P1;PMS_P2;Temp;Humidity;BMP_temperature;BMP_pressure;BME280_temperature;BME280_humidity;BME280_pressure;Samples;Min_cycle;Max_cycle;Signal;HPM_P1;HPM_P2
2021/10/31 00:01:35;;;;;;;38.15;29.50;;;;;;;3.95;99.88;101091.19;1728971;82;21076;-70
2021/10/31 00:04:01;;;;;;;38.40;32.05;;;;;;;3.93;99.86;101080.41;1728887;82;20933;-69
2021/10/31 00:06:28;;;;;;;30.37;26.45;;;;;;;3.99;100.00;101082.85;1728857;82;21080;-71
2021/10/31 00:08:54;;;;;;;34.73;28.80;;;;;;;4.02;100.00;101080.70;1728854;83;21067;-73
2021/10/31 00:11:22;;;;;;;36.60;32.03;;;;;;;3.95;99.75;101086.37;1728775;82;21540;-71
2021/10/31 00:13:48;;;;;;;34.43;30.20;;;;;;;3.90;99.59;101080.23;1728888;82;20965;-72
2021/10/31 00:16:17;;;;;;;34.83;29.52;;;;;;;3.89;99.69;101079.06;1728839;83;20972;-73
2021/10/31 00:18:43;;;;;;;28.65;25.10;;;;;;;3.90;99.68;101070.92;1729017;82;21494;-73
2021/10/31 00:21:09;;;;;;;35.43;27.42;;;;;;;3.88;99.50;101070.28;1708362;83;21213;-72
2021/10/31 00:23:37;;;;;;;33.85;28.87;;;;;;;3.82;99.42;101069.62;1728868;82;20921;-72
2021/10/31 00:26:03;;;;;;;33.95;29.00;;;;;;;3.78;99.36;101064.83;1727940;83;21021;-71
2021/10/31 00:28:30;;;;;;;40.00;29.82;;;;;;;3.75;99.43;101069.14;1708077;83;20968;-71
2021/10/31 00:30:57;;;;;;;33.58;29.15;;;;;;;3.79;99.64;101067.29;1697788;83;21032;-72
2021/10/31 00:33:23;;;;;;;34.92;28.10;;;;;;;3.79;99.60;101065.16;1707821;83;21191;-71
2021/10/31 00:35:49;;;;;;;42.03;33.83;;;;;;;3.79;99.66;101063.30;1728937;82;20897;-72
2021/10/31 00:38:16;;;;;;;39.75;30.57;;;;;;;3.72;99.44;101053.53;1716563;82;20973;-70
2021/10/31 00:40:44;;;;;;;44.73;32.65;;;;;;;3.66;99.62;101055.05;1720376;82;20980;-71
2021/10/31 00:43:11;;;;;;;44.33;35.95;;;;;;;3.62;99.63;101055.06;1729139;82;21028;-71
2021/10/31 00:45:39;;;;;;;38.38;32.73;;;;;;;3.64;100.00;101054.90;1729216;83;20972;-70
2021/10/31 00:48:06;;;;;;;33.18;29.30;;;;;;;3.64;100.00;101054.90;1728555;82;20968;-72
2021/10/31 00:50:34;;;;;;;39.60;33.30;;;;;;;3.58;100.00;101050.25;1703009;83;21506;-73
2021/10/31 00:53:01;;;;;;;41.55;31.95;;;;;;;3.58;100.00;101050.25;1711626;83;21064;-72
2021/10/31 00:55:28;;;;;;;43.90;32.30;;;;;;;3.60;100.00;101046.94;1711709;83;21060;-73
2021/10/31 00:57:54;;;;;;;36.28;29.60;;;;;;;3.60;100.00;101046.94;1721810;82;21023;-73
2021/10/31 01:00:20;;;;;;;35.03;27.00;;;;;;;3.57;100.00;101041.94;1741106;82;21047;-71
2021/10/31 01:02:47;;;;;;;35.35;28.67;;;;;;;3.56;100.00;101041.60;1741237;82;21063;-72
2021/10/31 01:05:17;;;;;;;37.55;33.53;;;;;;;3.59;100.00;101047.44;1720122;82;21564;-72
2021/10/31 01:08:18;;;;;;;42.75;38.00;;;;;;;3.62;100.00;101040.43;1720038;82;21023;-70
2021/10/31 01:11:18;;;;;;;31.90;28.47;;;;;;;3.65;100.00;101039.24;1741206;82;21189;-71
2021/10/31 01:13:55;;;;;;;43.23;32.05;;;;;;;3.67;100.00;101034.09;1741156;82;20947;-70
2021/10/31 01:16:53;;;;;;;39.73;28.17;;;;;;;3.57;100.00;101036.13;1720117;82;21044;-72
2021/10/31 01:19:41;;;;;;;44.90;31.55;;;;;;;3.55;100.00;101037.31;1740870;82;21559;-72
2021/10/31 01:22:21;;;;;;;41.73;32.73;;;;;;;3.47;100.00;101030.16;1729920;82;21464;-72
2021/10/31 01:25:09;;;;;;;38.42;32.13;;;;;;;3.44;100.00;101032.68;1741166;82;21037;-72
2021/10/31 01:28:04;;;;;;;46.73;37.17;;;;;;;3.40;100.00;101026.55;1715752;82;21080;-70
2021/10/31 01:30:58;;;;;;;36.25;30.37;;;;;;;3.37;100.00;101030.86;1730548;82;21018;-69
2021/10/31 01:33:45;;;;;;;41.73;33.92;;;;;;;3.42;100.00;101026.69;1741626;82;20983;-71
2021/10/31 01:36:43;;;;;;;43.60;35.33;;;;;;;3.48;100.00;101026.02;1740920;82;21003;-70
2021/10/31 01:39:25;;;;;;;38.08;33.20;;;;;;;3.44;100.00;101022.54;1741254;82;21216;-74
2021/10/31 01:42:22;;;;;;;44.60;34.83;;;;;;;3.41;100.00;101025.03;1741243;82;21067;-73
2021/10/31 01:45:18;;;;;;;49.30;37.03;;;;;;;3.40;100.00;101019.90;1691286;83;21503;-70
2021/10/31 01:48:07;;;;;;;42.38;31.48;;;;;;;3.39;100.00;101016.91;1718355;82;20936;-71
2021/10/31 01:50:45;;;;;;;34.85;27.37;;;;;;;3.35;100.00;101015.09;1722294;82;20971;-73
2021/10/31 01:53:37;;;;;;;27.07;22.82;;;;;;;3.35;100.00;101011.60;1748286;81;21097;-70
2021/10/31 01:56:16;;;;;;;38.48;30.88;;;;;;;3.34;100.00;101010.77;1723069;82;20916;-71
2021/10/31 01:58:49;;;;;;;37.53;33.20;;;;;;;3.29;100.00;101014.93;1748093;81;20979;-70
2021/10/31 02:01:16;;;;;;;36.00;30.82;;;;;;;3.24;100.00;101015.94;1748738;81;21556;-72
2021/10/31 02:03:42;;;;;;;36.00;29.98;;;;;;;3.23;100.00;101009.79;1748355;81;21003;-72
2021/10/31 02:06:10;;;;;;;34.83;30.10;;;;;;;3.21;100.00;101004.33;1722990;82;21071;-73
2021/10/31 02:08:38;;;;;;;27.02;22.80;;;;;;;3.21;100.00;101007.82;1748368;82;20960;-73
2021/10/31 02:11:04;;;;;;;30.82;24.55;;;;;;;3.18;100.00;101008.63;1723481;82;21470;-73
2021/10/31 02:13:31;;;;;;;31.37;25.70;;;;;;;3.14;100.00;101010.81;1747569;81;21042;-70
2021/10/31 02:15:57;;;;;;;37.00;28.80;;;;;;;3.08;100.00;101011.48;1747305;82;21019;-71
2021/10/31 02:18:26;;;;;;;33.73;25.55;;;;;;;3.03;100.00;101008.00;1747135;81;21083;-70
2021/10/31 02:20:55;;;;;;;34.08;29.42;;;;;;;3.02;100.00;101002.34;1747760;82;20897;-68
2021/10/31 02:23:22;;;;;;;40.45;33.33;;;;;;;3.04;100.00;101009.66;1732242;82;20925;-69
2021/10/31 02:25:49;;;;;;;31.97;28.55;;;;;;;3.06;100.00;101002.86;1748056;81;21001;-70
2021/10/31 02:28:15;;;;;;;37.65;30.20;;;;;;;3.03;100.00;100998.70;1723367;82;21059;-71
2021/10/31 02:30:42;;;;;;;28.73;25.12;;;;;;;2.97;100.00;101003.34;1711279;82;21023;-68
2021/10/31 02:33:08;;;;;;;31.68;26.07;;;;;;;2.96;100.00;101000.88;1746246;82;21549;-68
2021/10/31 02:35:35;;;;;;;40.55;31.95;;;;;;;2.95;100.00;100998.72;1747986;82;21061;-69
2021/10/31 02:38:02;;;;;;;36.00;29.18;;;;;;;2.96;100.00;100992.91;1748158;81;21015;-69
2021/10/31 02:40:31;;;;;;;32.95;27.52;;;;;;;3.04;100.00;101001.69;1748542;82;21018;-68
2021/10/31 02:42:58;;;;;;;40.73;28.02;;;;;;;3.06;100.00;100997.05;1748391;81;20949;-69
2021/10/31 02:45:25;;;;;;;39.08;30.82;;;;;;;3.04;100.00;100992.88;1748339;81;20997;-69
2021/10/31 02:48:12;;;;;;;31.27;24.72;;;;;;;2.99;100.00;100997.38;1748211;82;21018;-75
2021/10/31 02:50:42;;;;;;;27.22;24.15;;;;;;;2.99;100.00;101001.36;1720891;81;21004;-69
2021/10/31 02:53:27;;;;;;;31.25;26.93;;;;;;;2.93;100.00;100999.37;1701036;83;21052;-71
2021/10/31 02:56:08;;;;;;;37.35;30.40;;;;;;;2.89;100.00;101003.86;1737615;82;21076;-70
2021/10/31 02:58:47;;;;;;;29.07;24.23;;;;;;;2.93;100.00;101003.36;1718769;82;21489;-69
2021/10/31 03:01:13;;;;;;;35.73;30.10;;;;;;;3.01;100.00;101006.03;1740445;82;20968;-70
2021/10/31 03:03:40;;;;;;;41.53;31.45;;;;;;;2.97;100.00;101002.02;1718095;82;20980;-71
2021/10/31 03:06:06;;;;;;;32.67;29.12;;;;;;;2.94;100.00;101005.52;1720043;82;21020;-71
2021/10/31 03:08:33;;;;;;;35.98;28.95;;;;;;;2.87;100.00;101005.88;1741166;82;21645;-70
2021/10/31 03:11:07;;;;;;;35.38;30.05;;;;;;;2.76;100.00;101001.73;1716272;83;21508;-72
2021/10/31 03:13:34;;;;;;;38.78;32.40;;;;;;;2.73;100.00;100994.60;1730354;82;20929;-69
2021/10/31 03:16:00;;;;;;;34.73;28.40;;;;;;;2.68;100.00;100995.10;1732954;82;20960;-71
2021/10/31 03:18:27;;;;;;;42.60;30.12;;;;;;;2.73;100.00;100992.77;1740171;82;20997;-72
2021/10/31 03:20:53;;;;;;;32.03;27.48;;;;;;;2.77;100.00;100988.78;1751652;81;21131;-70
2021/10/31 03:23:20;;;;;;;49.48;36.50;;;;;;;2.80;100.00;100981.80;1771897;80;20929;-71
2021/10/31 03:25:46;;;;;;;44.98;31.23;;;;;;;2.80;100.00;100980.96;1722482;81;20971;-71
2021/10/31 03:28:13;;;;;;;43.50;32.80;;;;;;;2.84;100.00;100984.94;1715433;82;21532;-71
2021/10/31 03:30:40;;;;;;;45.17;32.00;;;;;;;2.91;100.00;100984.11;1718422;82;21114;-70
2021/10/31 03:33:06;;;;;;;38.95;29.72;;;;;;;2.92;100.00;100985.78;1709179;83;21815;-71
2021/10/31 03:35:34;;;;;;;40.23;30.45;;;;;;;2.88;100.00;100986.25;1739328;82;20975;-70
2021/10/31 03:38:00;;;;;;;36.80;32.30;;;;;;;2.78;100.00;100993.60;1740449;82;21032;-72
2021/10/31 03:40:27;;;;;;;37.48;29.80;;;;;;;2.68;100.00;100991.61;1739613;82;21083;-71
2021/10/31 03:42:53;;;;;;;27.10;24.25;;;;;;;2.58;100.00;100989.95;1740721;82;21079;-70
2021/10/31 03:45:19;;;;;;;41.88;35.25;;;;;;;2.51;100.00;100981.47;1713307;83;21776;-69
2021/10/31 03:47:48;;;;;;;42.98;32.08;;;;;;;2.44;99.99;100977.84;1734156;82;20988;-69
2021/10/31 03:50:16;;;;;;;44.67;32.25;;;;;;;2.36;99.91;100981.30;1721225;82;20961;-70
2021/10/31 03:52:44;;;;;;;38.20;31.40;;;;;;;2.35;100.00;100977.51;1723009;82;21047;-71
2021/10/31 03:55:11;;;;;;;44.85;34.78;;;;;;;2.35;100.00;100977.51;1748612;81;20983;-70
2021/10/31 03:57:37;;;;;;;37.63;28.30;;;;;;;2.34;100.00;100975.84;1748437;82;21833;-70
2021/10/31 04:00:06;;;;;;;50.12;34.08;;;;;;;2.40;100.00;100978.64;1748581;81;20995;-70
2021/10/31 04:02:36;;;;;;;47.58;34.03;;;;;;;2.47;100.00;100972.19;1722974;82;20987;-71
2021/10/31 04:05:04;;;;;;;43.15;30.35;;;;;;;2.55;100.00;100966.86;1722925;82;21038;-71
2021/10/31 04:07:31;;;;;;;51.00;32.25;;;;;;;2.63;100.00;100969.54;1742892;81;21004;-72
2021/10/31 04:09:59;;;;;;;54.83;41.90;;;;;;;2.64;100.00;100965.36;1719055;82;21097;-71
2021/10/31 04:12:27;;;;;;;58.30;38.73;;;;;;;2.64;100.00;100970.68;1747904;81;20935;-70
2021/10/31 04:17:35;;;;;;;62.07;39.07;;;;;;;2.74;100.00;100963.03;1873275;75;22421;-70
2021/10/31 04:20:01;;;;;;;44.63;32.60;;;;;;;2.73;100.00;100969.36;1852295;77;20897;-70
2021/10/31 04:22:28;;;;;;;44.93;31.10;;;;;;;2.73;100.00;100963.55;1832638;77;21029;-71
2021/10/31 04:24:55;;;;;;;38.33;28.87;;;;;;;2.64;100.00;100962.70;1836740;77;21422;-71
2021/10/31 04:27:22;;;;;;;46.02;36.83;;;;;;;2.50;100.00;100960.72;1815889;78;20971;-73
2021/10/31 04:29:48;;;;;;;46.08;34.25;;;;;;;2.38;99.71;100952.77;1832425;77;20856;-72
2021/10/31 04:32:15;;;;;;;43.85;31.10;;;;;;;2.35;99.96;100950.44;1840732;77;20981;-70
2021/10/31 04:34:41;;;;;;;43.83;32.05;;;;;;;2.39;100.00;100956.27;1846663;77;21396;-71
2021/10/31 04:37:07;;;;;;;40.03;31.42;;;;;;;2.39;100.00;100953.11;1842674;77;21000;-72
2021/10/31 04:39:34;;;;;;;41.77;33.08;;;;;;;2.35;100.00;100958.92;1827020;77;20992;-71
2021/10/31 04:42:06;;;;;;;49.38;33.45;;;;;;;2.29;100.00;100959.08;1828557;77;21493;-72
2021/10/31 04:44:33;;;;;;;37.58;28.27;;;;;;;2.16;99.39;100967.51;1844138;77;21038;-72
2021/10/31 04:47:00;;;;;;;36.70;31.17;;;;;;;2.08;99.34;100971.48;1840948;77;21306;-71
2021/10/31 04:49:28;;;;;;;37.15;30.60;;;;;;;2.04;99.31;100966.67;1826983;77;21096;-71
2021/10/31 04:51:54;;;;;;;34.20;30.25;;;;;;;2.03;99.32;100967.17;1827845;77;20929;-71
2021/10/31 04:54:23;;;;;;;31.80;26.70;;;;;;;2.02;99.21;100964.67;1826629;78;20912;-71
2021/10/31 04:56:50;;;;;;;30.85;27.48;;;;;;;1.94;98.97;100969.47;1822863;77;20956;-71
2021/10/31 04:59:16;;;;;;;41.37;32.25;;;;;;;1.88;98.96;100968.79;1821718;77;21748;-72
2021/10/31 05:01:45;;;;;;;40.33;32.40;;;;;;;1.84;98.88;100970.60;1815377;78;21519;-72
2021/10/31 05:04:12;;;;;;;35.10;27.90;;;;;;;1.79;98.95;100975.06;1826909;78;20944;-71
2021/10/31 05:06:39;;;;;;;32.30;26.55;;;;;;;1.75;99.08;100973.73;1826694;78;21014;-71
2021/10/31 05:09:05;;;;;;;33.20;29.27;;;;;;;1.69;98.94;100974.38;1829737;77;20948;-71
2021/10/31 05:11:32;;;;;;;36.68;30.43;;;;;;;1.61;98.85;100973.02;1772636;79;21111;-70
2021/10/31 05:13:59;;;;;;;41.73;33.13;;;;;;;1.53;98.83;100968.54;1741904;81;20909;-70
2021/10/31 05:16:25;;;;;;;40.25;32.58;;;;;;;1.57;99.08;100964.57;1744355;81;20932;-70
2021/10/31 05:18:55;;;;;;;37.17;29.30;;;;;;;1.60;99.25;100970.03;1770183;79;21050;-71
2021/10/31 05:21:21;;;;;;;38.50;30.65;;;;;;;1.64;99.31;100964.73;1798706;79;21043;-72
2021/10/31 05:23:48;;;;;;;33.08;26.65;;;;;;;1.63;99.33;100967.88;1835992;77;21039;-69
2021/10/31 05:26:15;;;;;;;39.27;31.68;;;;;;;1.63;99.44;100971.06;1797232;77;21504;-70
2021/10/31 05:28:41;;;;;;;37.38;32.17;;;;;;;1.62;99.52;100969.39;1835389;77;20956;-71
2021/10/31 05:31:08;;;;;;;31.62;26.00;;;;;;;1.61;99.58;100962.42;1834755;77;20984;-70
2021/10/31 05:33:34;;;;;;;35.95;30.50;;;;;;;1.63;99.80;100968.41;1789861;79;21003;-69
2021/10/31 05:36:01;;;;;;;43.45;29.92;;;;;;;1.65;99.93;100970.38;1748979;81;21166;-70
2021/10/31 05:38:27;;;;;;;41.83;30.08;;;;;;;1.69;100.00;100965.92;1763724;81;21020;-72
2021/10/31 05:40:54;;;;;;;34.08;27.02;;;;;;;1.72;100.00;100970.09;1748568;81;20979;-70
2021/10/31 05:43:20;;;;;;;39.10;29.72;;;;;;;1.72;100.00;100970.92;1766026;79;21049;-71
2021/10/31 05:45:46;;;;;;;33.00;26.35;;;;;;;1.70;100.00;100968.08;1764045;80;20974;-71
2021/10/31 05:48:13;;;;;;;46.18;31.15;;;;;;;1.74;100.00;100970.73;1763859;81;21282;-69
2021/10/31 05:50:40;;;;;;;67.27;45.40;;;;;;;1.78;100.00;100968.09;1803706;78;20970;-69
2021/10/31 05:53:07;;;;;;;38.67;31.55;;;;;;;1.88;100.00;100967.46;1783573;79;20948;-70
2021/10/31 05:55:35;;;;;;;46.10;34.33;;;;;;;1.91;100.00;100968.98;1780965;79;21004;-71
2021/10/31 05:58:02;;;;;;;43.45;31.48;;;;;;;1.93;100.00;100974.93;1807319;79;21121;-71
2021/10/31 06:00:29;;;;;;;35.68;27.42;;;;;;;1.94;100.00;100975.27;1788229;79;21948;-70
2021/10/31 06:02:55;;;;;;;29.98;23.15;;;;;;;1.92;100.00;100972.77;1782335;78;20968;-70
2021/10/31 06:05:21;;;;;;;43.38;37.20;;;;;;;1.92;100.00;100975.95;1751817;79;20956;-70
2021/10/31 06:07:49;;;;;;;41.00;29.32;;;;;;;1.95;100.00;100976.94;1813276;78;20964;-69
2021/10/31 06:10:15;;;;;;;49.45;34.05;;;;;;;2.01;100.00;100972.32;1813238;77;20972;-69
2021/10/31 06:12:45;;;;;;;51.98;34.83;;;;;;;2.04;100.00;100974.63;1789024;79;23366;-70
2021/10/31 06:15:13;;;;;;;48.48;33.70;;;;;;;2.04;100.00;100970.16;1778522;79;21541;-69
2021/10/31 06:17:40;;;;;;;48.42;34.25;;;;;;;2.03;100.00;100973.80;1813000;78;21443;-71
2021/10/31 06:20:09;;;;;;;48.05;32.38;;;;;;;2.05;100.00;100973.16;1813136;79;20952;-72
2021/10/31 06:22:35;;;;;;;29.27;23.30;;;;;;;2.11;100.00;100975.66;1802318;79;21537;-71
2021/10/31 06:25:05;;;;;;;44.60;28.80;;;;;;;2.24;100.00;100973.34;1802825;79;21470;-71
2021/10/31 06:27:32;;;;;;;44.53;28.55;;;;;;;2.36;100.00;100968.02;1778068;80;20942;-69
2021/10/31 06:29:59;;;;;;;34.60;26.50;;;;;;;2.54;100.00;100970.02;1764638;80;20891;-70
2021/10/31 06:32:26;;;;;;;41.08;27.85;;;;;;;2.74;100.00;100974.48;1767819;79;21036;-69
2021/10/31 06:34:52;;;;;;;47.03;37.08;;;;;;;2.85;100.00;100976.81;1783799;79;21047;-69
2021/10/31 06:37:18;;;;;;;52.35;38.53;;;;;;;2.94;100.00;100974.47;1805417;79;21789;-71
2021/10/31 06:39:45;;;;;;;44.93;37.17;;;;;;;3.03;100.00;100974.78;1796887;77;21496;-68
2021/10/31 06:42:11;;;;;;;46.68;35.10;;;;;;;3.13;100.00;100976.41;1796775;79;20991;-68
2021/10/31 06:44:37;;;;;;;43.58;32.93;;;;;;;3.20;100.00;100972.09;1797251;77;21011;-70
2021/10/31 06:47:04;;;;;;;54.50;32.38;;;;;;;3.25;100.00;100979.05;1797288;79;20932;-70
2021/10/31 06:49:32;;;;;;;49.93;35.68;;;;;;;3.35;100.00;100976.53;1806990;79;22117;-70
2021/10/31 06:51:59;;;;;;;43.40;31.23;;;;;;;3.41;100.00;100980.31;1835331;77;21009;-70
2021/10/31 06:54:28;;;;;;;49.10;35.33;;;;;;;3.57;100.00;100975.44;1796533;77;21082;-70
2021/10/31 06:56:56;;;;;;;51.68;35.45;;;;;;;3.73;100.00;100975.38;1803611;79;20916;-72
2021/10/31 06:59:22;;;;;;;39.18;32.13;;;;;;;3.84;100.00;100971.80;1812030;79;20992;-70
2021/10/31 07:01:48;;;;;;;41.00;32.95;;;;;;;4.00;100.00;100968.73;1785682;79;21046;-71
2021/10/31 07:04:14;;;;;;;43.58;32.28;;;;;;;4.17;100.00;100974.29;1812155;79;20947;-70
2021/10/31 07:06:41;;;;;;;46.50;32.80;;;;;;;4.23;100.00;100972.23;1805424;79;20963;-70
2021/10/31 07:09:07;;;;;;;39.25;28.67;;;;;;;4.33;100.00;100970.16;1815245;77;20996;-69
2021/10/31 07:11:33;;;;;;;44.53;30.08;;;;;;;4.56;100.00;100970.97;1813576;79;21509;-71
2021/10/31 07:13:59;;;;;;;40.73;31.07;;;;;;;4.56;100.00;100970.97;1813343;79;21111;-70
2021/10/31 07:16:27;;;;;;;40.43;29.77;;;;;;;4.66;100.00;100978.22;1809953;78;20973;-72
2021/10/31 07:18:55;;;;;;;41.68;28.92;;;;;;;4.76;100.00;100976.63;1765526;81;20975;-69
2021/10/31 07:21:22;;;;;;;34.83;28.52;;;;;;;4.86;100.00;100976.37;1765341;81;21022;-71
2021/10/31 07:23:48;;;;;;;32.48;26.17;;;;;;;4.91;100.00;100975.33;1765396;80;21024;-70
2021/10/31 07:26:15;;;;;;;36.98;29.57;;;;;;;4.96;100.00;100972.45;1789479;79;21488;-69
2021/10/31 07:28:41;;;;;;;40.08;30.75;;;;;;;5.07;100.00;100972.01;1748374;81;21026;-70
2021/10/31 07:31:11;;;;;;;36.58;28.17;;;;;;;5.20;99.93;100976.19;1763654;80;21010;-70
2021/10/31 07:33:38;;;;;;;40.60;29.57;;;;;;;5.31;99.18;100973.58;1758771;79;20967;-69
2021/10/31 07:36:04;;;;;;;35.23;29.67;;;;;;;5.41;98.75;100975.97;1796071;79;20984;-70
2021/10/31 07:38:32;;;;;;;35.00;29.18;;;;;;;5.50;98.29;100970.36;1800135;77;21387;-70
2021/10/31 07:41:00;;;;;;;37.53;29.35;;;;;;;5.55;97.55;100960.45;1780906;79;20996;-71
2021/10/31 07:43:26;;;;;;;36.25;30.00;;;;;;;5.65;97.37;100969.00;1806645;78;21504;-70
2021/10/31 07:45:53;;;;;;;43.48;31.20;;;;;;;5.77;97.06;100968.00;1794581;79;21037;-71
2021/10/31 07:48:19;;;;;;;34.13;28.20;;;;;;;5.86;96.33;100973.04;1780394;78;20959;-72
2021/10/31 07:50:45;;;;;;;41.75;33.42;;;;;;;5.92;95.65;100968.83;1799005;79;21764;-73
2021/10/31 07:53:14;;;;;;;35.68;28.73;;;;;;;5.97;95.10;100969.92;1808026;79;20989;-72
2021/10/31 07:55:41;;;;;;;36.85;27.10;;;;;;;6.07;95.03;100970.95;1801201;78;21542;-73
2021/10/31 07:58:08;;;;;;;40.25;30.12;;;;;;;6.17;94.72;100963.97;1795125;79;21039;-72
2021/10/31 08:00:34;;;;;;;40.78;30.90;;;;;;;6.26;94.27;100970.84;1794518;79;20978;-78
2021/10/31 08:03:01;;;;;;;36.73;29.25;;;;;;;6.34;93.70;100966.70;1794033;79;21882;-73
2021/10/31 08:05:28;;;;;;;29.90;26.25;;;;;;;6.40;93.25;100962.77;1785068;79;21543;-70
2021/10/31 08:07:55;;;;;;;35.58;27.82;;;;;;;6.53;92.84;100970.06;1770365;80;20990;-72
2021/10/31 08:10:23;;;;;;;31.07;26.82;;;;;;;6.65;92.57;100977.90;1763780;80;20931;-73
2021/10/31 08:12:50;;;;;;;31.62;26.80;;;;;;;6.74;92.01;100975.91;1748176;80;21086;-72
2021/10/31 08:15:16;;;;;;;32.03;24.20;;;;;;;6.86;91.93;100973.01;1792795;79;21067;-71
2021/10/31 08:17:42;;;;;;;30.90;27.40;;;;;;;7.01;91.80;100973.23;1795870;79;20995;-72
2021/10/31 08:20:11;;;;;;;31.70;28.07;;;;;;;7.15;91.04;100975.48;1777415;78;20930;-71
2021/10/31 08:22:38;;;;;;;33.30;27.87;;;;;;;7.25;90.36;100976.47;1774083;79;21028;-71
2021/10/31 08:25:07;;;;;;;34.50;27.62;;;;;;;7.39;90.36;100968.33;1802317;79;22188;-69
2021/10/31 08:27:35;;;;;;;35.83;29.52;;;;;;;7.50;89.81;100976.31;1781815;79;20926;-69
2021/10/31 08:30:01;;;;;;;30.02;25.75;;;;;;;7.60;88.88;100970.09;1759829;80;21002;-70
2021/10/31 08:32:29;;;;;;;35.00;26.37;;;;;;;7.71;88.56;100967.36;1790233;79;20947;-70
2021/10/31 08:34:56;;;;;;;30.80;27.22;;;;;;;7.81;87.65;100965.97;1809239;78;20951;-69
2021/10/31 08:37:22;;;;;;;33.80;27.02;;;;;;;7.95;87.64;100962.81;1811433;79;21503;-69
2021/10/31 08:39:48;;;;;;;32.48;28.00;;;;;;;8.13;87.59;100968.94;1823973;78;21574;-73
2021/10/31 08:42:15;;;;;;;32.25;27.05;;;;;;;8.25;86.37;100960.08;1813463;78;21041;-73
2021/10/31 08:44:42;;;;;;;37.03;26.23;;;;;;;8.36;86.24;100965.91;1809068;79;20981;-73
2021/10/31 08:47:11;;;;;;;35.98;29.02;;;;;;;8.46;86.21;100963.14;1777846;79;20927;-72
2021/10/31 08:49:37;;;;;;;34.65;24.85;;;;;;;8.63;86.19;100958.22;1817710;78;21785;-72
2021/10/31 08:52:07;;;;;;;25.32;22.67;;;;;;;8.80;85.83;100959.44;1797229;79;21434;-71
2021/10/31 08:54:36;;;;;;;34.78;28.67;;;;;;;8.91;85.00;100952.12;1771321;79;21062;-71
2021/10/31 08:57:05;;;;;;;30.52;24.27;;;;;;;9.01;84.92;100948.50;1803880;79;21534;-70
2021/10/31 08:59:32;;;;;;;33.15;26.48;;;;;;;9.15;84.44;100949.30;1790817;78;21041;-70
2021/10/31 09:01:58;;;;;;;25.52;22.40;;;;;;;9.29;84.31;100951.43;1773533;79;20959;-71
2021/10/31 09:04:26;;;;;;;29.15;23.90;;;;;;;9.43;83.62;100946.33;1786228;79;23366;-70
2021/10/31 09:06:54;;;;;;;27.05;22.52;;;;;;;9.56;81.86;100945.75;1796361;79;20887;-72
2021/10/31 09:09:20;;;;;;;31.05;24.00;;;;;;;9.67;81.54;100941.59;1767993;79;21159;-70
2021/10/31 09:11:47;;;;;;;31.10;22.77;;;;;;;9.82;81.63;100937.28;1761723;79;21005;-75
2021/10/31 09:14:15;;;;;;;30.30;24.47;;;;;;;9.97;81.09;100937.84;1815942;79;21440;-70
2021/10/31 09:16:42;;;;;;;25.30;22.05;;;;;;;10.10;80.28;100933.72;1797764;78;21040;-71
2021/10/31 09:19:09;;;;;;;26.27;21.55;;;;;;;10.18;79.37;100936.17;1772871;79;21102;-70
2021/10/31 09:21:36;;;;;;;25.55;20.52;;;;;;;10.25;78.91;100929.41;1772379;79;21035;-69
2021/10/31 09:24:03;;;;;;;28.38;22.60;;;;;;;10.32;78.25;100925.63;1772150;79;21066;-70
2021/10/31 09:26:30;;;;;;;28.90;21.85;;;;;;;10.38;77.83;100916.69;1824608;78;21009;-70
2021/10/31 09:28:56;;;;;;;24.40;21.60;;;;;;;10.51;78.00;100919.79;1826197;78;21046;-70
2021/10/31 09:31:23;;;;;;;23.65;20.12;;;;;;;10.66;77.19;100909.53;1797185;78;20970;-70
2021/10/31 09:33:50;;;;;;;19.77;17.45;;;;;;;10.78;76.09;100913.68;1794394;79;21031;-71
2021/10/31 09:36:16;;;;;;;21.75;17.05;;;;;;;10.91;75.24;100909.51;1770137;79;20934;-72
2021/10/31 09:38:43;;;;;;;22.13;16.25;;;;;;;11.02;74.46;100907.95;1783704;79;21464;-70
2021/10/31 09:41:13;;;;;;;19.80;13.90;;;;;;;11.13;73.01;100913.41;1813521;79;22124;-71
2021/10/31 09:43:52;;;;;;;15.15;12.73;;;;;;;11.24;70.86;100906.47;1767142;81;20931;-71
2021/10/31 09:46:18;;;;;;;20.57;15.05;;;;;;;11.34;69.12;100902.72;1765367;80;21057;-81
2021/10/31 09:48:45;;;;;;;17.60;14.00;;;;;;;11.43;69.04;100902.72;1780475;79;21110;-72
2021/10/31 09:51:11;;;;;;;15.90;13.08;;;;;;;11.51;67.96;100895.66;1770852;79;21466;-74
2021/10/31 09:53:39;;;;;;;16.02;13.58;;;;;;;11.59;67.93;100895.38;1766936;80;21123;-72
2021/10/31 09:56:05;;;;;;;14.98;10.95;;;;;;;11.70;67.70;100898.63;1778598;80;21941;-71
2021/10/31 09:58:35;;;;;;;13.00;11.65;;;;;;;11.80;66.26;100901.64;1806207;79;21637;-73
2021/10/31 10:01:05;;;;;;;13.48;12.13;;;;;;;11.85;65.64;100893.39;1765961;79;21117;-71
2021/10/31 10:06:20;;;;;;;16.90;13.15;;;;;;;11.94;65.09;100904.97;1781557;79;21081;-74
2021/10/31 10:09:08;;;;;;;16.75;11.48;;;;;;;11.98;64.65;100894.58;1772703;78;21012;-71
2021/10/31 10:11:38;;;;;;;13.50;12.05;;;;;;;12.04;64.74;100890.41;1789155;79;20899;-69
2021/10/31 10:14:19;;;;;;;13.72;10.93;;;;;;;12.09;64.06;100886.50;1767607;79;21050;-70
2021/10/31 10:16:46;;;;;;;16.37;12.18;;;;;;;12.15;63.97;100884.77;1807619;79;21500;-72
2021/10/31 10:19:17;;;;;;;13.88;12.25;;;;;;;12.26;63.65;100873.19;1796709;79;23222;-71
2021/10/31 10:21:43;;;;;;;16.73;10.78;;;;;;;12.30;61.91;100883.80;1793440;79;21005;-70
2021/10/31 10:24:11;;;;;;;14.23;11.90;;;;;;;12.31;60.84;100877.36;1781145;78;21019;-74
2021/10/31 10:26:44;;;;;;;13.53;11.50;;;;;;;12.29;60.73;100875.93;1764611;79;20989;-75
2021/10/31 10:29:25;;;;;;;23.32;14.20;;;;;;;12.27;60.57;100866.74;1769059;79;20991;-72
2021/10/31 10:31:59;;;;;;;14.43;12.90;;;;;;;12.30;60.80;100859.52;1789102;78;21210;-71
2021/10/31 10:37:25;;;;;;;11.70;10.50;;;;;;;12.41;60.23;100861.95;1767444;79;21557;-70
2021/10/31 10:40:01;;;;;;;18.90;11.90;;;;;;;12.49;60.09;100857.55;1791028;78;21011;-73
2021/10/31 10:42:33;;;;;;;14.18;12.25;;;;;;;12.56;59.80;100850.17;1766299;79;21062;-76
2021/10/31 10:45:11;;;;;;;16.23;11.38;;;;;;;12.62;59.65;100851.91;1787904;78;21043;-70
2021/10/31 10:47:59;;;;;;;17.67;12.33;;;;;;;12.64;59.42;100839.02;1740361;81;21515;-69
2021/10/31 10:50:38;;;;;;;12.58;10.98;;;;;;;12.75;59.38;100841.42;1791141;78;20972;-69
2021/10/31 10:53:05;;;;;;;14.73;10.93;;;;;;;12.80;58.45;100832.09;1795236;79;21462;-69
2021/10/31 10:55:34;;;;;;;18.37;11.10;;;;;;;12.83;58.50;100826.20;1780157;79;21420;-70
2021/10/31 10:58:11;;;;;;;15.08;12.58;;;;;;;12.86;58.40;100824.38;1754785;79;21704;-69
2021/10/31 11:00:40;;;;;;;17.48;14.13;;;;;;;12.92;58.20;100828.30;1807145;78;21003;-71
2021/10/31 11:03:09;;;;;;;16.60;11.15;;;;;;;12.98;58.29;100821.97;1803453;79;20927;-72
2021/10/31 11:05:42;;;;;;;16.82;11.68;;;;;;;13.01;58.05;100813.37;1796585;79;21524;-68
2021/10/31 11:08:17;;;;;;;15.38;11.28;;;;;;;13.01;57.89;100813.37;1808747;77;21074;-68
2021/10/31 11:10:54;;;;;;;13.58;10.82;;;;;;;13.05;57.74;100814.53;1811606;78;21130;-71
2021/10/31 11:13:20;;;;;;;17.32;10.40;;;;;;;13.11;57.32;100811.45;1799235;79;21009;-68
2021/10/31 11:15:46;;;;;;;13.58;11.05;;;;;;;13.16;57.69;100812.08;1813439;78;20927;-70
2021/10/31 11:18:13;;;;;;;17.23;12.20;;;;;;;13.23;57.64;100807.38;1815478;79;20998;-68
2021/10/31 11:20:42;;;;;;;14.50;11.57;;;;;;;13.26;57.57;100806.35;1812893;79;20985;-69
2021/10/31 11:23:15;;;;;;;16.40;11.57;;;;;;;13.37;57.70;100799.27;1767428;79;21555;-68
2021/10/31 11:25:45;;;;;;;12.70;10.35;;;;;;;13.45;57.05;100803.76;1762397;79;21007;-70
2021/10/31 11:28:14;;;;;;;13.35;10.25;;;;;;;13.51;57.04;100804.67;1796396;79;21025;-68
2021/10/31 11:30:43;;;;;;;16.82;11.28;;;;;;;13.56;56.43;100802.07;1801827;79;20986;-68